Time;durP1;ratioP1;P1;durP2;ratioP2;P2;SDS_P1;SDS_P2;PMS_P1;PMS_P2;Temp;Humidity;BMP_temperature;BMP_pressure;BME280_temperature;BME280_humidity;BME280_pressure;Samples;Min_cycle;Max_cycle;Signal;HPM_P1;HPM_P2
2024/03/22 00:02:09;;;;;;;28.30;13.32;;;11.10;99.90;;;;;;4971785;28;20491;-76
2024/03/22 00:04:35;;;;;;;21.50;11.13;;;11.10;99.90;;;;;;4986229;28;20531;-77
2024/03/22 00:07:00;;;;;;;31.25;15.48;;;11.10;99.90;;;;;;4990357;28;20095;-78
2024/03/22 00:09:26;;;;;;;20.98;10.43;;;11.10;99.90;;;;;;4980474;28;20509;-77
2024/03/22 00:11:51;;;;;;;28.55;15.02;;;11.00;99.90;;;;;;4971206;28;20108;-77
2024/03/22 00:14:17;;;;;;;32.28;16.58;;;11.00;99.90;;;;;;4953933;28;20066;-77
2024/03/22 00:16:42;;;;;;;17.02;7.35;;;11.00;99.90;;;;;;4973312;28;20049;-77
2024/03/22 00:19:08;;;;;;;30.98;16.38;;;11.10;99.90;;;;;;4963096;28;20424;-77
2024/03/22 00:21:35;;;;;;;33.33;15.90;;;11.10;99.90;;;;;;4989482;28;20128;-77
2024/03/22 00:24:01;;;;;;;34.40;16.77;;;11.10;99.90;;;;;;4982234;28;20027;-77
2024/03/22 00:26:27;;;;;;;20.60;11.77;;;11.10;99.90;;;;;;4983339;28;20038;-76
2024/03/22 00:28:52;;;;;;;33.50;16.00;;;11.20;99.90;;;;;;4990822;28;20557;-77
2024/03/22 00:31:18;;;;;;;30.17;16.08;;;11.20;99.90;;;;;;4976703;28;20118;-77
2024/03/22 00:33:43;;;;;;;30.80;17.20;;;11.20;99.90;;;;;;4969195;28;20058;-78
2024/03/22 00:36:09;;;;;;;26.08;13.90;;;11.20;99.90;;;;;;4987356;28;20088;-77
2024/03/22 00:38:35;;;;;;;32.70;16.95;;;11.20;99.90;;;;;;4985098;28;20073;-78
2024/03/22 00:41:00;;;;;;;31.25;13.05;;;11.20;99.90;;;;;;4972887;28;20380;-76
2024/03/22 00:43:26;;;;;;;32.58;17.70;;;11.20;99.90;;;;;;4969595;28;20042;-77
2024/03/22 00:45:51;;;;;;;29.05;14.10;;;11.20;99.90;;;;;;4985849;28;20041;-78
2024/03/22 00:48:18;;;;;;;32.55;16.58;;;11.30;99.90;;;;;;4967691;28;20145;-76
2024/03/22 00:50:43;;;;;;;32.13;15.68;;;11.30;99.90;;;;;;4989489;28;20040;-78
2024/03/22 00:53:11;;;;;;;32.15;16.88;;;11.30;99.90;;;;;;4984332;28;20409;-77
2024/03/22 00:55:37;;;;;;;30.70;15.85;;;11.20;99.90;;;;;;4983398;28;20045;-76
2024/03/22 00:58:02;;;;;;;27.98;14.00;;;11.20;99.90;;;;;;4987335;28;20030;-76
2024/03/22 01:00:28;;;;;;;35.65;17.83;;;11.30;99.90;;;;;;4957917;28;20046;-77
2024/03/22 01:02:53;;;;;;;49.88;20.35;;;11.30;99.90;;;;;;4985911;28;20087;-77
2024/03/22 01:05:19;;;;;;;35.08;17.63;;;11.30;99.90;;;;;;4987285;28;20126;-76
2024/03/22 01:07:44;;;;;;;28.90;16.17;;;11.20;99.90;;;;;;4968629;28;20058;-77
2024/03/22 01:10:11;;;;;;;33.50;16.85;;;11.30;99.90;;;;;;4989835;28;20532;-77
2024/03/22 01:12:36;;;;;;;32.72;16.85;;;11.30;99.90;;;;;;4954633;28;20038;-77
2024/03/22 01:15:04;;;;;;;24.63;10.98;;;11.40;99.90;;;;;;4972656;28;20514;-76
2024/03/22 01:17:29;;;;;;;33.72;16.65;;;11.40;99.90;;;;;;4988584;28;20042;-77
2024/03/22 01:19:55;;;;;;;34.35;16.27;;;11.40;99.90;;;;;;4972470;28;20041;-77
2024/03/22 01:22:20;;;;;;;35.20;18.42;;;11.40;99.90;;;;;;4988205;28;20034;-76
2024/03/22 01:24:46;;;;;;;29.52;14.43;;;11.40;99.90;;;;;;4954717;28;20046;-77
2024/03/22 01:27:12;;;;;;;28.92;15.98;;;11.40;99.90;;;;;;4986948;28;20066;-77
2024/03/22 01:29:37;;;;;;;49.50;19.00;;;11.40;99.90;;;;;;4984126;28;20031;-76
2024/03/22 01:32:03;;;;;;;36.17;18.10;;;11.40;99.90;;;;;;4956676;28;20035;-77
2024/03/22 01:34:29;;;;;;;32.65;15.20;;;11.50;99.90;;;;;;4971989;28;20126;-77
2024/03/22 01:36:54;;;;;;;34.85;16.25;;;11.40;99.90;;;;;;4985367;28;20054;-77
2024/03/22 01:39:21;;;;;;;29.88;14.68;;;11.60;99.90;;;;;;4988497;28;20191;-76
2024/03/22 01:41:47;;;;;;;28.80;15.20;;;11.50;99.90;;;;;;4987054;28;20027;-79
2024/03/22 01:44:13;;;;;;;29.30;14.02;;;11.50;99.90;;;;;;4984039;28;20038;-77
2024/03/22 01:46:40;;;;;;;30.15;16.02;;;11.50;99.90;;;;;;4973641;28;20040;-76
2024/03/22 01:49:05;;;;;;;30.67;14.25;;;11.50;99.90;;;;;;4972632;28;20500;-77
2024/03/22 01:51:31;;;;;;;23.13;12.55;;;11.50;99.90;;;;;;4956985;28;20034;-77
2024/03/22 01:53:56;;;;;;;30.08;15.25;;;11.50;99.90;;;;;;4973808;28;20035;-76
2024/03/22 01:56:22;;;;;;;37.05;17.35;;;11.50;99.90;;;;;;4992235;28;20068;-78
2024/03/22 01:58:47;;;;;;;34.00;15.85;;;11.60;99.90;;;;;;4975754;28;20103;-77
2024/03/22 02:01:13;;;;;;;26.67;10.70;;;11.50;99.90;;;;;;4961249;28;20041;-77
2024/03/22 02:03:39;;;;;;;17.00;8.85;;;11.50;99.90;;;;;;4970837;28;20174;-78
2024/03/22 02:06:04;;;;;;;36.35;16.98;;;11.60;99.90;;;;;;4992341;28;20511;-77
2024/03/22 02:08:30;;;;;;;29.63;15.65;;;11.60;99.90;;;;;;4992038;28;20030;-77
2024/03/22 02:10:55;;;;;;;35.78;14.93;;;11.60;99.90;;;;;;4992725;28;20034;-76
2024/03/22 02:13:21;;;;;;;21.67;9.52;;;11.60;99.90;;;;;;4973604;28;20034;-76
2024/03/22 02:15:46;;;;;;;33.38;16.13;;;11.60;99.90;;;;;;4987928;28;20110;-77
2024/03/22 02:18:12;;;;;;;20.08;9.68;;;11.60;99.90;;;;;;4986694;28;20118;-76
2024/03/22 02:20:38;;;;;;;32.88;14.70;;;11.60;99.90;;;;;;4990912;28;20607;-77
2024/03/22 02:23:03;;;;;;;31.08;14.32;;;11.70;99.90;;;;;;4992044;28;20118;-77
2024/03/22 02:25:29;;;;;;;33.53;14.43;;;11.70;99.90;;;;;;4974468;28;20096;-77
2024/03/22 02:27:54;;;;;;;36.40;16.73;;;11.60;99.90;;;;;;4990183;28;20723;-77
2024/03/22 02:30:20;;;;;;;33.95;16.08;;;11.70;99.90;;;;;;4992736;28;20105;-76
2024/03/22 02:32:45;;;;;;;34.08;16.92;;;11.70;99.90;;;;;;4990434;28;20056;-77
2024/03/22 02:35:11;;;;;;;16.85;7.38;;;11.70;99.90;;;;;;4974487;28;20417;-77
2024/03/22 02:37:36;;;;;;;28.92;14.07;;;11.70;99.90;;;;;;4989906;28;20488;-76
2024/03/22 02:40:02;;;;;;;25.63;10.77;;;11.70;99.90;;;;;;4988534;28;20129;-76
2024/03/22 02:42:28;;;;;;;30.85;16.38;;;11.70;99.90;;;;;;4958206;28;20492;-77
2024/03/22 02:44:53;;;;;;;31.27;14.60;;;11.70;99.90;;;;;;4988331;28;20499;-77
2024/03/22 02:47:19;;;;;;;29.45;14.52;;;11.70;99.90;;;;;;4990936;28;20038;-77
2024/03/22 02:49:44;;;;;;;29.52;15.20;;;11.70;99.90;;;;;;4972113;28;20034;-76
2024/03/22 02:52:10;;;;;;;23.48;9.60;;;11.70;99.90;;;;;;4957972;28;20062;-76
2024/03/22 02:54:35;;;;;;;27.88;12.00;;;11.60;99.90;;;;;;4971946;28;20109;-77
2024/03/22 02:57:01;;;;;;;23.73;11.55;;;11.60;99.90;;;;;;4991132;28;20054;-77
2024/03/22 02:59:27;;;;;;;28.13;11.77;;;11.70;99.90;;;;;;4988349;28;20030;-78
2024/03/22 03:01:53;;;;;;;37.83;16.98;;;11.70;99.90;;;;;;4974197;28;20034;-78
2024/03/22 03:04:18;;;;;;;21.95;11.10;;;11.70;99.90;;;;;;4985458;28;20026;-77
2024/03/22 03:06:45;;;;;;;18.60;10.10;;;11.70;99.90;;;;;;4971435;28;20038;-77
2024/03/22 03:09:11;;;;;;;19.73;8.70;;;11.70;99.90;;;;;;4983841;28;20562;-78
2024/03/22 03:11:39;;;;;;;33.60;17.40;;;11.70;99.90;;;;;;4971703;28;20496;-78
2024/03/22 03:14:04;;;;;;;35.78;17.27;;;11.70;99.90;;;;;;4976638;28;20022;-78
2024/03/22 03:16:30;;;;;;;19.70;9.77;;;11.70;99.90;;;;;;4973367;28;20037;-78
2024/03/22 03:18:55;;;;;;;33.80;17.92;;;11.70;99.90;;;;;;4956946;28;20030;-77
2024/03/22 03:21:21;;;;;;;25.45;11.50;;;11.70;99.90;;;;;;4976048;28;20089;-77
2024/03/22 03:23:47;;;;;;;22.92;12.27;;;11.70;99.90;;;;;;4985817;28;20031;-77
2024/03/22 03:26:12;;;;;;;29.77;15.13;;;11.70;99.90;;;;;;4954536;28;20081;-77
2024/03/22 03:28:38;;;;;;;34.72;16.13;;;11.70;99.90;;;;;;4970690;28;20554;-77
2024/03/22 03:31:04;;;;;;;17.77;7.82;;;11.70;99.90;;;;;;4970550;28;20065;-77
2024/03/22 03:33:30;;;;;;;27.77;13.40;;;11.70;99.90;;;;;;4958682;28;20030;-78
2024/03/22 03:35:55;;;;;;;19.88;10.40;;;11.70;99.90;;;;;;4973928;28;20109;-78
2024/03/22 03:38:23;;;;;;;13.95;7.20;;;11.70;99.90;;;;;;4986177;28;20044;-78
2024/03/22 03:40:48;;;;;;;17.70;8.70;;;11.70;99.90;;;;;;4971501;28;20047;-77
2024/03/22 03:43:14;;;;;;;32.95;14.98;;;11.70;99.90;;;;;;4971600;28;20084;-76
2024/03/22 03:45:39;;;;;;;27.08;13.68;;;11.70;99.90;;;;;;4987899;28;20092;-77
2024/03/22 03:48:05;;;;;;;32.20;15.23;;;11.70;99.90;;;;;;4955879;28;20039;-77
2024/03/22 03:50:31;;;;;;;19.70;10.40;;;11.70;99.90;;;;;;4936472;28;1076844;-78
2024/03/22 03:52:56;;;;;;;23.45;10.68;;;11.70;99.90;;;;;;4972991;28;20042;-79
2024/03/22 03:55:22;;;;;;;32.17;14.75;;;11.60;99.90;;;;;;4986327;28;20070;-77
2024/03/22 03:57:50;;;;;;;18.48;10.27;;;11.60;99.90;;;;;;4957165;28;20042;-77
2024/03/22 04:00:15;;;;;;;30.95;14.07;;;11.60;99.90;;;;;;4982828;28;20459;-77
2024/03/22 04:02:41;;;;;;;29.48;13.82;;;11.50;99.90;;;;;;4972562;28;20022;-77
2024/03/22 04:05:07;;;;;;;19.13;9.02;;;11.60;99.90;;;;;;4972331;28;20050;-77
2024/03/22 04:07:32;;;;;;;23.02;10.45;;;11.50;99.90;;;;;;4969691;28;20451;-77
2024/03/22 04:10:00;;;;;;;22.17;10.85;;;11.50;99.90;;;;;;4986212;28;20038;-78
2024/03/22 04:12:26;;;;;;;26.10;13.85;;;11.50;99.90;;;;;;4973862;28;20416;-77
2024/03/22 04:14:51;;;;;;;25.92;14.52;;;11.40;99.90;;;;;;4982910;28;20500;-77
2024/03/22 04:17:17;;;;;;;26.75;14.85;;;11.50;99.90;;;;;;4972873;28;20113;-77
2024/03/22 04:19:42;;;;;;;30.55;15.57;;;11.40;99.90;;;;;;4985028;28;20037;-77
2024/03/22 04:22:08;;;;;;;24.52;13.55;;;11.40;99.90;;;;;;4970195;28;20463;-79
2024/03/22 04:24:33;;;;;;;27.83;12.23;;;11.50;99.90;;;;;;4990515;28;20050;-78
2024/03/22 04:26:59;;;;;;;22.17;9.05;;;11.40;99.90;;;;;;4967942;28;20088;-78
2024/03/22 04:29:24;;;;;;;27.25;13.90;;;11.40;99.90;;;;;;4975407;28;20392;-77
2024/03/22 04:31:50;;;;;;;15.13;7.60;;;11.40;99.90;;;;;;4972060;28;20556;-78
2024/03/22 04:34:15;;;;;;;26.38;13.55;;;11.40;99.90;;;;;;4988591;28;20464;-78
2024/03/22 04:36:41;;;;;;;16.63;8.35;;;11.40;99.90;;;;;;4986485;28;20030;-79
2024/03/22 04:39:06;;;;;;;20.73;9.05;;;11.30;99.90;;;;;;4988261;28;20081;-78
2024/03/22 04:41:32;;;;;;;24.55;12.80;;;11.40;99.90;;;;;;4971939;28;20023;-79
2024/03/22 04:43:58;;;;;;;27.80;13.07;;;11.30;99.90;;;;;;4985764;28;20034;-77
2024/03/22 04:46:23;;;;;;;28.63;11.32;;;11.30;99.90;;;;;;4970088;28;20099;-78
2024/03/22 04:48:49;;;;;;;29.10;12.45;;;11.30;99.90;;;;;;4988104;28;20038;-78
2024/03/22 04:51:15;;;;;;;33.05;13.35;;;11.30;99.90;;;;;;4970471;28;20053;-78
2024/03/22 04:53:41;;;;;;;8.70;4.85;;;11.40;99.90;;;;;;4970458;28;20499;-79
2024/03/22 04:56:07;;;;;;;15.13;6.45;;;11.30;99.90;;;;;;4989904;28;20034;-78
2024/03/22 04:58:32;;;;;;;22.23;12.43;;;11.30;99.90;;;;;;4985319;28;20045;-78
2024/03/22 05:00:58;;;;;;;21.48;10.73;;;11.30;99.90;;;;;;4971263;28;20035;-78
2024/03/22 05:03:24;;;;;;;24.30;13.48;;;11.30;99.90;;;;;;4983070;28;20042;-78
2024/03/22 05:05:50;;;;;;;16.25;9.15;;;11.30;99.90;;;;;;4986376;28;20519;-78
2024/03/22 05:08:15;;;;;;;22.58;10.23;;;11.30;99.90;;;;;;4974003;28;20515;-78
2024/03/22 05:10:42;;;;;;;26.55;12.07;;;11.30;99.90;;;;;;4956836;28;20039;-78
2024/03/22 05:13:07;;;;;;;17.70;9.95;;;11.40;99.90;;;;;;4969471;28;20042;-78
2024/03/22 05:15:33;;;;;;;24.60;12.52;;;11.30;99.90;;;;;;4988888;28;20563;-78
2024/03/22 05:17:59;;;;;;;21.15;10.50;;;11.30;99.90;;;;;;4968207;28;20530;-77
2024/03/22 05:20:24;;;;;;;24.30;13.10;;;11.30;99.90;;;;;;4969795;28;20042;-78
2024/03/22 05:22:50;;;;;;;25.88;11.50;;;11.30;99.90;;;;;;4956136;28;20110;-78
2024/03/22 05:25:15;;;;;;;19.90;11.23;;;11.30;99.90;;;;;;4983002;28;20030;-78
2024/03/22 05:27:44;;;;;;;9.48;5.30;;;11.30;99.90;;;;;;4951403;28;20056;-79
2024/03/22 05:30:10;;;;;;;21.52;12.75;;;11.20;99.90;;;;;;4954898;28;20041;-78
2024/03/22 05:32:36;;;;;;;11.65;6.80;;;11.30;99.90;;;;;;4967251;28;20120;-77
2024/03/22 05:35:01;;;;;;;25.67;13.45;;;11.30;99.90;;;;;;4969519;28;21974;-78
2024/03/22 05:37:29;;;;;;;11.50;5.80;;;11.30;99.90;;;;;;4972518;28;20046;-78
2024/03/22 05:39:55;;;;;;;19.88;11.07;;;11.30;99.90;;;;;;4990960;28;20169;-78
2024/03/22 05:42:20;;;;;;;23.50;10.82;;;11.30;99.90;;;;;;4971639;28;20121;-78
2024/03/22 05:44:46;;;;;;;18.58;10.57;;;11.30;99.90;;;;;;4973325;28;20143;-78
2024/03/22 05:47:11;;;;;;;17.35;8.35;;;11.30;99.90;;;;;;4971748;28;20061;-78
2024/03/22 05:49:37;;;;;;;19.75;11.88;;;11.30;99.90;;;;;;4982118;28;20046;-78
2024/03/22 05:52:02;;;;;;;21.73;10.75;;;11.30;99.90;;;;;;4953293;28;20518;-79
2024/03/22 05:54:28;;;;;;;19.00;9.90;;;11.30;99.90;;;;;;4987997;28;20519;-79
2024/03/22 05:56:53;;;;;;;19.50;9.50;;;11.30;99.90;;;;;;4984651;28;20396;-77
2024/03/22 05:59:19;;;;;;;18.70;11.10;;;11.30;99.90;;;;;;4965929;28;20030;-77
2024/03/22 06:01:44;;;;;;;21.10;9.75;;;11.30;99.90;;;;;;4986506;28;20077;-78
2024/03/22 06:04:10;;;;;;;27.60;11.32;;;11.30;99.90;;;;;;4966739;28;20038;-78
2024/03/22 06:06:35;;;;;;;21.05;10.63;;;11.40;99.90;;;;;;4960936;28;20461;-78
2024/03/22 06:09:11;;;;;;;21.98;10.73;;;11.40;99.90;;;;;;4970673;28;20511;-78
2024/03/22 06:11:36;;;;;;;23.60;10.02;;;11.40;99.90;;;;;;4988004;28;20508;-78
2024/03/22 06:14:02;;;;;;;18.50;9.82;;;11.40;99.90;;;;;;4985276;28;20027;-78
2024/03/22 06:16:27;;;;;;;18.75;11.13;;;11.40;99.90;;;;;;4987282;28;20215;-78
2024/03/22 06:18:53;;;;;;;20.23;9.20;;;11.40;99.90;;;;;;4970224;28;20117;-78
2024/03/22 06:21:21;;;;;;;17.48;7.70;;;11.40;99.90;;;;;;4985775;28;20446;-79
2024/03/22 06:23:50;;;;;;;16.38;9.50;;;11.50;99.90;;;;;;4986613;28;20088;-79
2024/03/22 06:26:15;;;;;;;22.67;10.98;;;11.50;99.90;;;;;;4999574;28;20496;-77
2024/03/22 06:28:41;;;;;;;14.32;8.10;;;11.50;99.90;;;;;;4968997;28;20086;-78
2024/03/22 06:31:06;;;;;;;19.10;8.63;;;11.60;99.90;;;;;;4968465;28;20073;-78
2024/03/22 06:33:32;;;;;;;10.88;5.22;;;11.60;99.90;;;;;;4986092;28;20113;-78
2024/03/22 06:35:57;;;;;;;13.98;5.10;;;11.60;99.90;;;;;;4984622;28;20104;-78
2024/03/22 06:38:23;;;;;;;21.67;8.85;;;11.70;99.90;;;;;;4989165;28;20510;-78
2024/03/22 06:40:48;;;;;;;18.67;10.15;;;11.70;99.90;;;;;;4973718;28;20495;-78
2024/03/22 06:43:14;;;;;;;11.05;5.03;;;11.70;99.90;;;;;;4955715;28;20539;-79
2024/03/22 06:45:39;;;;;;;15.68;9.05;;;11.80;99.90;;;;;;4980999;28;20181;-78
2024/03/22 06:48:05;;;;;;;20.20;9.15;;;11.80;99.90;;;;;;4990500;28;20030;-78
2024/03/22 06:50:31;;;;;;;16.38;9.52;;;11.80;99.90;;;;;;4991597;28;20046;-78
2024/03/22 06:52:57;;;;;;;22.05;11.75;;;11.80;99.90;;;;;;4989321;28;20042;-77
2024/03/22 06:55:23;;;;;;;20.50;12.77;;;11.90;99.90;;;;;;4972824;28;20030;-79
2024/03/22 06:57:49;;;;;;;22.38;12.77;;;11.90;99.90;;;;;;4988703;28;20029;-78
2024/03/22 07:00:15;;;;;;;13.98;7.40;;;11.90;99.90;;;;;;4972185;28;20038;-78
2024/03/22 07:02:41;;;;;;;18.88;5.43;;;11.90;99.90;;;;;;4969200;28;20033;-78
2024/03/22 07:05:07;;;;;;;21.67;10.50;;;12.00;99.90;;;;;;4975639;28;20043;-78
2024/03/22 07:07:33;;;;;;;13.63;9.05;;;12.00;99.90;;;;;;4984413;28;20038;-78
2024/03/22 07:09:59;;;;;;;26.80;10.43;;;12.10;99.90;;;;;;4976645;28;20068;-78
2024/03/22 07:12:24;;;;;;;13.02;7.13;;;12.00;99.90;;;;;;4972132;28;20027;-78
2024/03/22 07:14:50;;;;;;;12.13;7.00;;;12.10;99.90;;;;;;4986168;28;20045;-78
2024/03/22 07:17:16;;;;;;;11.13;5.45;;;12.20;99.90;;;;;;4985848;28;20038;-78
2024/03/22 07:19:42;;;;;;;19.45;10.73;;;12.20;99.90;;;;;;4973583;28;20034;-77
2024/03/22 07:22:09;;;;;;;9.30;5.57;;;12.30;99.90;;;;;;4973431;28;20088;-78
2024/03/22 07:24:34;;;;;;;12.55;6.07;;;12.30;99.90;;;;;;4970085;28;20034;-77
2024/03/22 07:27:00;;;;;;;23.48;11.55;;;12.40;99.90;;;;;;4986518;28;20030;-78
2024/03/22 07:29:26;;;;;;;11.45;6.55;;;12.50;99.90;;;;;;4966920;28;20412;-78
2024/03/22 07:31:51;;;;;;;22.02;10.13;;;12.60;99.90;;;;;;4971638;28;20233;-78
2024/03/22 07:34:17;;;;;;;20.45;11.45;;;12.60;99.90;;;;;;4973266;28;20030;-77
2024/03/22 07:36:42;;;;;;;8.10;4.60;;;12.70;99.90;;;;;;4987793;28;20030;-78
2024/03/22 07:39:08;;;;;;;18.60;11.15;;;12.80;99.90;;;;;;4971238;28;20373;-77
2024/03/22 07:41:33;;;;;;;21.30;10.30;;;12.90;99.90;;;;;;4975565;28;20092;-78
2024/03/22 07:44:02;;;;;;;17.80;10.40;;;13.00;99.90;;;;;;4969856;28;20062;-78
2024/03/22 07:46:28;;;;;;;22.88;12.48;;;13.10;99.90;;;;;;4972009;28;20033;-78
2024/03/22 07:48:53;;;;;;;17.35;11.57;;;13.10;99.90;;;;;;4990099;28;20496;-77
2024/03/22 07:51:19;;;;;;;17.67;9.35;;;13.20;99.90;;;;;;4987996;28;20089;-77
2024/03/22 07:53:46;;;;;;;25.20;11.30;;;13.30;99.90;;;;;;4978420;28;20655;-77
2024/03/22 07:56:12;;;;;;;14.18;8.27;;;13.30;99.90;;;;;;4986412;28;20511;-77
2024/03/22 07:58:38;;;;;;;12.35;6.80;;;13.40;99.90;;;;;;4988242;28;20030;-77
2024/03/22 08:01:07;;;;;;;20.92;11.98;;;13.40;99.90;;;;;;4957512;28;20034;-77
2024/03/22 08:03:32;;;;;;;16.33;6.78;;;13.50;99.90;;;;;;4966585;28;20371;-78
2024/03/22 08:05:58;;;;;;;12.48;5.35;;;13.60;99.90;;;;;;4969626;28;20153;-78
2024/03/22 08:08:24;;;;;;;15.70;7.22;;;13.70;99.90;;;;;;4955732;28;20039;-78
2024/03/22 08:10:49;;;;;;;15.65;6.85;;;13.80;99.90;;;;;;4969741;28;20041;-78
2024/03/22 08:13:15;;;;;;;14.32;7.30;;;13.80;99.90;;;;;;4990054;28;20125;-79
2024/03/22 08:15:43;;;;;;;11.25;7.80;;;13.90;99.90;;;;;;4987643;28;20128;-78
2024/03/22 08:18:10;;;;;;;18.20;11.63;;;13.90;99.90;;;;;;4973182;28;20117;-79
2024/03/22 08:20:37;;;;;;;16.63;8.35;;;14.10;99.90;;;;;;4969546;28;20065;-78
2024/03/22 08:23:02;;;;;;;20.05;10.00;;;14.20;99.90;;;;;;4991173;28;20576;-78
2024/03/22 08:25:29;;;;;;;20.48;11.35;;;14.30;99.90;;;;;;4988038;28;20045;-78
2024/03/22 08:27:55;;;;;;;14.52;8.98;;;14.30;99.90;;;;;;4955643;28;20069;-78
2024/03/22 08:30:21;;;;;;;22.35;10.57;;;14.30;99.90;;;;;;4970707;28;20535;-77
2024/03/22 08:32:46;;;;;;;12.57;6.45;;;14.50;99.90;;;;;;4988668;28;20512;-77
2024/03/22 08:35:12;;;;;;;13.57;7.30;;;14.70;99.90;;;;;;4985871;28;20137;-77
2024/03/22 08:37:37;;;;;;;20.15;11.63;;;14.60;99.90;;;;;;4975403;28;20031;-78
2024/03/22 08:40:07;;;;;;;19.25;9.98;;;14.60;99.90;;;;;;4975499;28;20041;-78
2024/03/22 08:42:33;;;;;;;15.88;8.80;;;14.60;99.90;;;;;;4981421;28;20037;-76
2024/03/22 08:44:58;;;;;;;18.08;10.20;;;14.60;99.90;;;;;;4984246;28;20041;-77
2024/03/22 08:47:24;;;;;;;14.93;8.70;;;14.60;99.90;;;;;;4969391;28;20539;-78
2024/03/22 08:49:49;;;;;;;14.13;9.13;;;14.70;99.90;;;;;;4987883;28;20496;-78
2024/03/22 08:52:15;;;;;;;14.68;10.02;;;14.90;99.90;;;;;;4987806;28;20047;-78
2024/03/22 08:54:41;;;;;;;16.52;8.70;;;14.90;99.90;;;;;;4985802;28;20724;-78
2024/03/22 08:57:06;;;;;;;17.73;9.82;;;14.90;99.90;;;;;;4988241;28;20034;-77
2024/03/22 08:59:32;;;;;;;9.85;6.03;;;14.90;99.90;;;;;;4973759;28;20108;-78
2024/03/22 09:01:59;;;;;;;20.10;10.63;;;14.90;99.90;;;;;;4967941;28;20511;-78
2024/03/22 09:04:24;;;;;;;11.50;7.05;;;15.00;99.90;;;;;;4953606;28;20037;-78
2024/03/22 09:06:50;;;;;;;14.90;8.95;;;15.20;99.90;;;;;;4961660;28;20034;-77
2024/03/22 09:09:16;;;;;;;14.23;7.90;;;15.10;99.90;;;;;;4982183;28;20042;-75
2024/03/22 09:11:42;;;;;;;16.00;9.98;;;15.20;99.90;;;;;;4964784;28;20038;-78
2024/03/22 09:14:07;;;;;;;17.33;8.98;;;15.20;99.90;;;;;;4984695;28;20100;-78
2024/03/22 09:16:33;;;;;;;12.15;7.55;;;15.40;99.90;;;;;;4971281;28;20097;-75
2024/03/22 09:18:59;;;;;;;13.20;6.22;;;15.50;99.90;;;;;;4966780;28;20454;-76
2024/03/22 09:21:24;;;;;;;17.17;8.68;;;15.60;99.90;;;;;;4968996;28;20475;-77
2024/03/22 09:23:50;;;;;;;15.00;8.15;;;15.50;99.90;;;;;;4975657;28;20026;-76
2024/03/22 09:26:15;;;;;;;17.08;9.15;;;15.50;99.90;;;;;;4985098;28;20038;-77
2024/03/22 09:28:42;;;;;;;10.82;5.55;;;15.60;99.90;;;;;;4969916;28;20038;-78
2024/03/22 09:31:07;;;;;;;41.35;10.90;;;15.70;99.90;;;;;;4976613;28;20126;-77
2024/03/22 09:33:36;;;;;;;9.90;6.47;;;15.70;99.90;;;;;;4967578;28;20042;-77
2024/03/22 09:36:02;;;;;;;11.98;8.77;;;15.80;99.90;;;;;;4982929;28;20495;-78
2024/03/22 09:38:28;;;;;;;10.02;4.18;;;15.90;99.90;;;;;;4985956;28;20117;-77
2024/03/22 09:40:54;;;;;;;12.88;5.80;;;16.00;99.90;;;;;;4984187;28;20129;-77
2024/03/22 09:43:20;;;;;;;14.95;8.77;;;16.00;99.90;;;;;;4971432;28;20037;-77
2024/03/22 09:45:47;;;;;;;13.73;8.10;;;16.20;99.90;;;;;;4965230;28;20091;-77
2024/03/22 09:48:12;;;;;;;14.57;6.97;;;16.30;99.90;;;;;;4960233;28;20039;-78
2024/03/22 09:50:38;;;;;;;13.73;7.50;;;16.30;99.90;;;;;;4970506;28;20041;-77
2024/03/22 09:53:03;;;;;;;13.27;6.95;;;16.60;99.90;;;;;;4967540;28;20049;-78
2024/03/22 09:55:29;;;;;;;16.25;7.32;;;16.60;99.90;;;;;;4972015;28;20027;-77
2024/03/22 09:57:55;;;;;;;14.05;6.63;;;16.70;99.90;;;;;;4985829;28;20031;-78
2024/03/22 10:00:22;;;;;;;12.80;5.03;;;16.60;99.90;;;;;;4971176;28;20377;-78
2024/03/22 10:02:48;;;;;;;12.80;7.95;;;16.60;99.90;;;;;;4969311;28;20033;-78
2024/03/22 10:05:14;;;;;;;12.95;8.25;;;16.80;99.90;;;;;;4972051;28;20034;-78
2024/03/22 10:07:40;;;;;;;12.05;7.63;;;16.80;99.90;;;;;;4970035;28;20089;-77
2024/03/22 10:10:07;;;;;;;15.32;8.20;;;16.90;99.90;;;;;;4992218;28;20030;-77
2024/03/22 10:12:32;;;;;;;15.63;9.15;;;16.90;99.90;;;;;;4989540;28;20109;-77
2024/03/22 10:14:58;;;;;;;11.73;7.90;;;17.00;99.90;;;;;;4989088;28;20133;-77
2024/03/22 10:17:26;;;;;;;14.80;7.70;;;17.20;99.90;;;;;;4990280;28;20429;-78
2024/03/22 10:19:52;;;;;;;8.57;5.78;;;17.20;99.90;;;;;;4971193;28;20081;-78
2024/03/22 10:22:18;;;;;;;17.17;8.27;;;17.30;99.90;;;;;;4991712;28;20061;-77
2024/03/22 10:24:44;;;;;;;15.02;8.52;;;17.20;99.90;;;;;;4986012;28;20041;-77
2024/03/22 10:27:09;;;;;;;7.22;3.35;;;17.10;99.90;;;;;;4972052;28;20034;-77
2024/03/22 10:29:36;;;;;;;15.30;7.13;;;17.40;99.90;;;;;;4975570;28;20070;-77
2024/03/22 10:32:01;;;;;;;15.98;8.20;;;17.40;99.90;;;;;;4990719;28;20027;-78
2024/03/22 10:34:28;;;;;;;14.13;7.53;;;17.60;99.90;;;;;;4980978;28;20029;-77
2024/03/22 10:36:55;;;;;;;12.32;6.80;;;17.60;99.90;;;;;;4978162;28;20137;-78
2024/03/22 10:39:20;;;;;;;7.30;4.35;;;17.60;99.90;;;;;;4963867;28;20026;-78
2024/03/22 10:41:46;;;;;;;9.10;6.63;;;17.60;99.90;;;;;;4957780;28;20041;-78
2024/03/22 10:44:14;;;;;;;11.57;7.32;;;17.80;99.90;;;;;;4976065;28;20066;-76
2024/03/22 10:46:44;;;;;;;14.93;7.95;;;17.60;99.90;;;;;;4974018;28;20039;-78
2024/03/22 10:49:09;;;;;;;9.68;6.05;;;17.60;99.90;;;;;;4991846;28;20038;-77
2024/03/22 10:51:35;;;;;;;8.52;5.43;;;17.90;99.90;;;;;;4973465;28;20061;-77
2024/03/22 10:54:01;;;;;;;12.93;7.15;;;17.90;99.90;;;;;;4971016;28;20057;-77
2024/03/22 10:56:26;;;;;;;15.68;8.48;;;17.90;99.90;;;;;;4973904;28;20034;-78
2024/03/22 10:58:52;;;;;;;13.88;8.40;;;17.70;99.90;;;;;;4992186;28;20125;-77
2024/03/22 11:01:25;;;;;;;14.48;6.38;;;17.80;99.90;;;;;;4974131;28;20038;-77
2024/03/22 11:03:50;;;;;;;12.38;6.78;;;18.00;99.90;;;;;;4989496;28;20038;-77
2024/03/22 11:06:22;;;;;;;9.82;4.15;;;18.00;99.90;;;;;;4988211;28;20034;-76
2024/03/22 11:08:51;;;;;;;11.52;6.50;;;18.20;99.90;;;;;;4972767;28;20077;-78
2024/03/22 11:11:19;;;;;;;9.63;4.88;;;17.80;99.90;;;;;;4972009;28;20034;-77
2024/03/22 11:13:47;;;;;;;9.73;4.43;;;17.90;99.90;;;;;;4971859;28;20037;-78
2024/03/22 11:16:14;;;;;;;14.60;7.82;;;18.10;99.90;;;;;;4953786;28;20062;-77
2024/03/22 11:18:39;;;;;;;13.40;7.00;;;18.50;99.90;;;;;;4989035;28;20530;-77
2024/03/22 11:21:07;;;;;;;15.95;7.43;;;18.60;99.90;;;;;;4957261;28;20045;-77
2024/03/22 11:23:33;;;;;;;10.65;6.63;;;18.60;99.90;;;;;;4976771;28;20113;-78
2024/03/22 11:25:59;;;;;;;9.32;5.10;;;18.60;99.90;;;;;;4987509;28;20391;-78
2024/03/22 11:28:24;;;;;;;10.05;5.97;;;18.60;99.90;;;;;;4989282;28;20644;-78
2024/03/22 11:30:50;;;;;;;10.75;6.93;;;18.70;99.90;;;;;;4975357;28;20042;-78
2024/03/22 11:33:15;;;;;;;9.23;4.68;;;18.80;99.90;;;;;;4987404;28;20034;-77
2024/03/22 11:35:41;;;;;;;10.75;6.75;;;19.10;99.90;;;;;;4990056;28;20027;-77
2024/03/22 11:38:09;;;;;;;7.13;4.68;;;18.90;99.90;;;;;;4991939;28;20037;-78
2024/03/22 11:40:36;;;;;;;7.30;4.40;;;18.70;99.90;;;;;;4948540;28;20046;-78
2024/03/22 11:43:01;;;;;;;8.75;3.72;;;18.80;99.90;;;;;;4970516;28;20038;-77
2024/03/22 11:45:27;;;;;;;13.43;4.63;;;18.80;99.90;;;;;;4955940;28;20019;-78
2024/03/22 11:47:53;;;;;;;14.05;6.38;;;18.50;99.20;;;;;;4975353;28;20031;-78
2024/03/22 11:50:19;;;;;;;10.82;5.82;;;18.70;99.90;;;;;;4961486;28;20839;-77
2024/03/22 11:52:48;;;;;;;5.72;3.45;;;18.30;99.70;;;;;;4976962;28;20061;-78
2024/03/22 11:55:14;;;;;;;12.73;7.32;;;18.50;99.50;;;;;;4960290;28;20563;-78
2024/03/22 11:57:40;;;;;;;10.13;4.40;;;18.30;99.90;;;;;;4973281;28;20246;-78
2024/03/22 12:00:08;;;;;;;10.05;6.95;;;18.20;99.90;;;;;;4975117;28;20411;-79
2024/03/22 12:02:37;;;;;;;13.60;7.57;;;18.30;99.90;;;;;;4992220;28;20026;-79
2024/03/22 12:05:04;;;;;;;7.85;3.28;;;18.30;99.90;;;;;;4991715;28;20535;-79
2024/03/22 12:07:30;;;;;;;8.38;4.88;;;18.20;99.80;;;;;;4970538;28;20033;-79
2024/03/22 12:09:55;;;;;;;14.30;7.13;;;18.10;99.90;;;;;;4990621;28;20054;-79
2024/03/22 12:12:22;;;;;;;12.05;7.22;;;17.80;99.90;;;;;;4986498;28;20030;-78
2024/03/22 12:14:47;;;;;;;11.05;7.10;;;18.00;99.90;;;;;;4986385;28;20113;-79
2024/03/22 12:17:15;;;;;;;16.27;6.47;;;18.10;99.90;;;;;;4988760;28;20161;-78
2024/03/22 12:19:41;;;;;;;13.13;7.05;;;18.00;99.90;;;;;;4970139;28;20388;-79
2024/03/22 12:22:17;;;;;;;11.35;6.88;;;18.00;99.90;;;;;;4974375;28;20045;-80
2024/03/22 12:24:43;;;;;;;11.18;8.45;;;17.80;99.90;;;;;;4987819;28;20039;-79
2024/03/22 12:27:08;;;;;;;12.85;7.72;;;17.70;99.90;;;;;;4989469;28;20029;-79